NCAR-RAP Real-Time Weather Data

Output produced by METARs form (23 June 2018  19:32 UTC)
found at http://weather.rap.ucar.edu/surface/
 
RJSA 231200Z 24007KT CAVOK 19/11 Q1001
RJSA 231100Z 21007KT CAVOK 21/10 Q1001
RJSA 231000Z 25005KT CAVOK 21/11 Q1001
RJSA 230900Z 21011KT CAVOK 22/10 Q1001
RJSA 230800Z 21011KT CAVOK 24/11 Q1001
RJSA 230700Z 22011KT CAVOK 25/11 Q1002
RJSA 230600Z 21014KT 170V230 CAVOK 25/11 Q1002
RJSA 230500Z 21016KT 180V240 CAVOK 27/11 Q1002
RJSA 230400Z 21015KT CAVOK 27/13 Q1002
RJSA 230300Z 21014KT 180V240 CAVOK 25/12 Q1003
RJSA 230200Z 21015KT 9999 FEW030 BKN/// 25/13 Q1004
RJSA 230100Z 20017KT 9999 FEW030 BKN/// 24/14 Q1005
RJSA 230000Z 21016KT 9999 FEW030 SCT/// 23/14 Q1005
RJSA 222300Z 19014KT 150V220 9999 FEW030 SCT/// 21/13 Q1005
RJSA 222200Z 20014KT 9999 FEW030 20/14 Q1006
RJSA 222140Z 20011KT 170V230 9999 FEW030 20/14 Q1006 RMK 1CU030 A2971
RJSA 221200Z 21011KT 9999 FEW020 18/12 Q1006
RJSA 221100Z 22014KT 9999 FEW020 SCT/// 18/12 Q1005
RJSA 221000Z 24018KT 9999 FEW020 SCT/// 19/12 Q1005
RJSA 220900Z 24017KT 9999 FEW020 SCT/// 20/12 Q1004
RJSA 220810Z 24018G28KT 9999 FEW020 SCT/// 21/12 Q1004 RMK 1CU020 A2966
RJSA 220800Z 23019KT 9999 FEW020 SCT/// 21/12 Q1004
RJSA 220712Z 23018G28KT 9999 FEW030 SCT090 20/12 Q1004 RMK 1CU030 3AC090 A2965
RJSA 220700Z 23021KT 9999 FEW030 SCT050 21/12 Q1004
RJSA 220600Z 24021G33KT 9999 FEW030 SCT050 22/13 Q1003
RJSA 220511Z 24022G33KT 9999 FEW030 SCT045 22/13 Q1003 RMK 1CU030 3CU045 A2963
RJSA 220500Z 23024KT 9999 FEW030 SCT045 22/13 Q1003
RJSA 220400Z 23023G37KT 9999 FEW030 BKN050 22/12 Q1003
RJSA 220300Z 23025G37KT 9999 FEW030 SCT100 23/11 Q1003
RJSA 220200Z 23022G32KT 9999 FEW020 SCT050 BKN100 23/11 Q1004
RJSA 220120Z 24021G31KT 9999 FEW015 BKN050 21/11 Q1004 RMK 1CU015 6CU050 A2965
RJSA 220100Z 23023KT 9999 FEW015 BKN050 22/11 Q1004
RJSA 220000Z 24022G32KT 9999 FEW015 BKN045 21/12 Q1003
RJSA 212300Z 24021G32KT 9999 FEW020 SCT060 20/13 Q1003
RJSA 212202Z 23017G27KT 9999 FEW020 SCT060 20/13 Q1003 RMK 1CU020 3SC060 A2964
RJSA 212200Z 23016KT 9999 FEW020 SCT060 20/13 Q1003
RJSA 212140Z 22018KT 9999 FEW020 SCT040 19/12 Q1003 RMK 1CU020 3CU040 A2964
RJSA 211200Z 21006KT 9999 FEW010 SCT040 17/12 Q1001
RJSA 211100Z 23009KT 9999 FEW010 SCT040 18/13 Q1000
RJSA 211000Z 22011KT 9999 FEW010 SCT030 BKN040 18/14 Q1000
RJSA 210900Z 22010KT 9999 -SHRA FEW015 SCT030 BKN040 19/15 Q1000
RJSA 210800Z 25014KT 9999 FEW015 SCT030 BKN040 20/14 Q1000